createdAt,value
2023-05-03T00:00:13.803Z,97421.09
2023-05-03T00:02:40.695Z,97411.19
2023-05-03T00:05:12.979Z,97405.66
2023-05-03T00:07:41.968Z,97400.84
2023-05-03T00:10:10.432Z,97411.69
2023-05-03T00:12:41.098Z,97417.44
2023-05-03T00:15:09.034Z,97417.63
2023-05-03T00:17:36.821Z,97417.63
2023-05-03T00:20:04.816Z,97414.13
2023-05-03T00:22:32.350Z,97405.31
2023-05-03T00:25:01.941Z,97400.31
2023-05-03T00:27:29.079Z,97404.88
2023-05-03T00:29:55.701Z,97396.16
2023-05-03T00:32:23.145Z,97396.31
2023-05-03T00:34:57.294Z,97402.97
2023-05-03T00:37:25.572Z,97384.28
2023-05-03T00:39:52.374Z,97377.38
2023-05-03T00:42:19.132Z,97388.84
2023-05-03T00:44:45.710Z,97383.47
2023-05-03T00:47:12.794Z,97360.38
2023-05-03T00:49:39.893Z,97374.78
2023-05-03T00:52:06.703Z,97375.16
2023-05-03T00:54:35.295Z,97379.84
2023-05-03T00:57:02.735Z,97382.38
2023-05-03T00:59:29.220Z,97372.94
2023-05-03T01:01:55.942Z,97368.53
2023-05-03T01:04:23.633Z,97350.50
2023-05-03T01:07:05.264Z,97370.69
2023-05-03T01:09:44.683Z,97370.19
2023-05-03T01:12:36.999Z,97363.75
2023-05-03T01:15:50.913Z,97352.47
2023-05-03T01:18:24.328Z,97348.84
2023-05-03T01:20:52.634Z,97338.22
2023-05-03T01:23:32.964Z,97348.38
2023-05-03T01:25:59.630Z,97340.13
2023-05-03T01:28:26.318Z,97346.56
2023-05-03T01:30:53.998Z,97341.25
2023-05-03T01:33:35.032Z,97354.63
2023-05-03T01:36:16.357Z,97362.03
2023-05-03T01:38:43.447Z,97355.72
2023-05-03T01:41:12.384Z,97366.53
2023-05-03T01:43:40.766Z,97348.00
2023-05-03T01:46:07.686Z,97356.78
2023-05-03T01:48:34.302Z,97347.25
2023-05-03T01:51:00.966Z,97323.63
2023-05-03T01:53:27.700Z,97346.81
2023-05-03T01:55:54.348Z,97350.53
2023-05-03T01:58:20.905Z,97339.41
2023-05-03T02:00:48.090Z,97336.09
2023-05-03T02:03:14.893Z,97332.63
2023-05-03T02:05:41.570Z,97323.66
2023-05-03T02:08:08.334Z,97321.34
2023-05-03T02:10:34.905Z,97317.72
2023-05-03T02:13:01.560Z,97320.91
2023-05-03T02:15:28.161Z,97303.78
2023-05-03T02:17:55.804Z,97307.84
2023-05-03T02:20:22.565Z,97319.84
2023-05-03T02:22:49.134Z,97333.97
2023-05-03T02:25:15.797Z,97329.88
2023-05-03T02:27:42.526Z,97333.66
2023-05-03T02:30:09.412Z,97342.72
2023-05-03T02:32:36.262Z,97337.31
2023-05-03T02:35:03.070Z,97338.22
2023-05-03T02:37:29.712Z,97334.78
2023-05-03T02:39:56.382Z,97336.59
2023-05-03T02:42:22.995Z,97335.00
2023-05-03T02:44:49.680Z,97340.06
2023-05-03T02:47:16.397Z,97330.50
2023-05-03T02:49:43.103Z,97351.38
2023-05-03T02:52:09.820Z,97352.16
2023-05-03T02:54:36.652Z,97355.78
2023-05-03T02:57:04.603Z,97351.97
2023-05-03T02:59:32.889Z,97359.06
2023-05-03T03:01:59.636Z,97356.44
2023-05-03T03:04:26.328Z,97362.06
2023-05-03T03:06:56.916Z,97356.44
2023-05-03T03:09:23.537Z,97360.94
2023-05-03T03:11:53.266Z,97352.50
2023-05-03T03:14:19.913Z,97358.75
2023-05-03T03:16:46.736Z,97365.09
2023-05-03T03:19:13.876Z,97374.94
2023-05-03T03:21:40.802Z,97393.88
2023-05-03T03:24:07.541Z,97399.69
2023-05-03T03:26:34.172Z,97408.44
2023-05-03T03:29:01.196Z,97410.25
2023-05-03T03:31:27.824Z,97410.22
2023-05-03T03:33:54.415Z,97429.38
2023-05-03T03:36:21.176Z,97427.53
2023-05-03T03:38:47.816Z,97423.78
2023-05-03T03:41:14.554Z,97442.28
2023-05-03T03:43:41.321Z,97439.22
2023-05-03T03:46:07.958Z,97441.16
2023-05-03T03:48:34.518Z,97448.03
2023-05-03T03:51:01.139Z,97454.28
2023-05-03T03:53:27.752Z,97442.25
2023-05-03T03:55:54.460Z,97467.94
2023-05-03T03:58:21.192Z,97470.84
2023-05-03T04:00:48.092Z,97478.38
2023-05-03T04:03:16.017Z,97479.16
2023-05-03T04:05:42.686Z,97500.28
2023-05-03T04:08:09.424Z,97508.28
2023-05-03T04:10:36.012Z,97505.78
2023-05-03T04:13:02.792Z,97520.03
2023-05-03T04:15:29.405Z,97532.13
2023-05-03T04:17:56.022Z,97542.13
2023-05-03T04:20:23.562Z,97549.66
2023-05-03T04:22:50.289Z,97549.69
2023-05-03T04:25:19.936Z,97547.16
2023-05-03T04:27:47.485Z,97561.72
2023-05-03T04:30:15.151Z,97564.09
2023-05-03T04:32:42.841Z,97561.06
2023-05-03T04:35:12.611Z,97553.38
2023-05-03T04:37:42.745Z,97546.16
2023-05-03T04:40:12.625Z,97542.06
2023-05-03T04:42:39.699Z,97547.69
2023-05-03T04:45:06.950Z,97547.06
2023-05-03T04:47:33.758Z,97518.84
2023-05-03T04:50:00.713Z,97535.13
2023-05-03T04:52:28.012Z,97539.25
2023-05-03T04:54:54.775Z,97541.78
2023-05-03T04:57:21.479Z,97539.59
2023-05-03T04:59:48.410Z,97530.38
2023-05-03T05:02:15.013Z,97528.97
2023-05-03T05:04:41.742Z,97531.47
2023-05-03T05:07:08.392Z,97528.50
2023-05-03T05:09:34.991Z,97520.81
2023-05-03T05:12:02.147Z,97518.81
2023-05-03T05:14:30.990Z,97514.56
2023-05-03T05:16:58.316Z,97498.28
2023-05-03T05:19:25.088Z,97489.66
2023-05-03T05:21:52.172Z,97495.78
2023-05-03T05:24:19.040Z,97503.44
2023-05-03T05:26:46.003Z,97485.75
2023-05-03T05:29:12.858Z,97511.75
2023-05-03T05:31:39.883Z,97510.50
2023-05-03T05:34:06.753Z,97514.88
2023-05-03T05:36:33.824Z,97533.19
2023-05-03T05:39:00.634Z,97536.19
2023-05-03T05:41:27.433Z,97549.34
2023-05-03T05:43:54.085Z,97550.13
2023-05-03T05:46:23.921Z,97551.22
2023-05-03T05:48:51.454Z,97545.59
2023-05-03T05:51:17.991Z,97546.81
2023-05-03T05:53:44.618Z,97552.16
2023-05-03T05:56:11.691Z,97556.19
2023-05-03T05:58:38.842Z,97556.19
2023-05-03T06:01:05.854Z,97553.63
2023-05-03T06:03:34.393Z,97538.66
2023-05-03T06:06:01.362Z,97538.88
2023-05-03T06:08:28.325Z,97535.66
2023-05-03T06:10:55.212Z,97521.91
2023-05-03T06:13:22.530Z,97523.75
2023-05-03T06:15:49.178Z,97527.56
2023-05-03T06:18:16.058Z,97533.16
2023-05-03T06:20:42.891Z,97529.97
2023-05-03T06:23:09.692Z,97542.19
2023-05-03T06:25:36.561Z,97542.16
2023-05-03T06:28:03.300Z,97541.59
2023-05-03T06:30:30.206Z,97539.53
2023-05-03T06:32:57.136Z,97537.59
2023-05-03T06:35:23.844Z,97532.91
2023-05-03T06:37:50.674Z,97529.34
2023-05-03T06:40:18.245Z,97532.53
2023-05-03T06:42:44.817Z,97518.78
2023-05-03T06:45:11.777Z,97529.16
2023-05-03T06:47:40.219Z,97527.28
2023-05-03T06:50:07.694Z,97530.28
2023-05-03T06:52:34.447Z,97504.41
2023-05-03T06:55:01.513Z,97526.97
2023-05-03T06:57:28.883Z,97526.66
2023-05-03T06:59:55.932Z,97518.09
2023-05-03T07:02:23.009Z,97515.34
2023-05-03T07:04:49.684Z,97521.41
2023-05-03T07:07:16.434Z,97518.03
2023-05-03T07:09:44.017Z,97519.16
2023-05-03T07:12:11.625Z,97512.84
2023-05-03T07:14:38.696Z,97518.13
2023-05-03T07:17:05.270Z,97507.31
2023-05-03T07:19:32.154Z,97515.66
2023-05-03T07:21:59.048Z,97530.22
2023-05-03T07:24:28.797Z,97519.31
2023-05-03T07:26:55.454Z,97506.63
2023-05-03T07:29:22.071Z,97514.34
2023-05-03T07:31:49.935Z,97506.88
2023-05-03T07:34:18.036Z,97508.53
2023-05-03T07:36:44.592Z,97505.84
2023-05-03T07:39:11.180Z,97502.66
2023-05-03T07:41:37.787Z,97502.06
2023-05-03T07:44:04.723Z,97487.69
2023-05-03T07:46:35.011Z,97495.84
2023-05-03T07:49:04.203Z,97501.66
2023-05-03T07:51:34.871Z,97497.53
2023-05-03T07:54:01.740Z,97485.88
2023-05-03T07:56:28.741Z,97492.84
2023-05-03T07:59:07.407Z,97494.31
2023-05-03T08:01:35.573Z,97484.66
2023-05-03T08:04:02.451Z,97478.00
2023-05-03T08:06:29.526Z,97470.34
2023-05-03T08:08:56.217Z,97479.03
2023-05-03T08:11:22.877Z,97487.22
2023-05-03T08:13:49.480Z,97482.75
2023-05-03T08:16:16.632Z,97472.16
2023-05-03T08:18:43.340Z,97468.03
2023-05-03T08:21:12.034Z,97457.91
2023-05-03T08:23:38.636Z,97457.09
2023-05-03T08:26:07.746Z,97461.50
2023-05-03T08:28:34.438Z,97463.59
2023-05-03T08:31:03.777Z,97466.69
2023-05-03T08:33:31.003Z,97456.22
2023-05-03T08:35:57.560Z,97461.78
2023-05-03T08:38:24.760Z,97462.69
2023-05-03T08:40:54.414Z,97458.34
2023-05-03T08:43:21.959Z,97455.53
2023-05-03T08:45:48.683Z,97459.28
2023-05-03T08:48:15.778Z,97460.22
2023-05-03T08:50:42.873Z,97460.34
2023-05-03T08:53:10.679Z,97458.69
2023-05-03T08:55:37.993Z,97455.38
2023-05-03T08:58:12.848Z,97468.94
2023-05-03T09:00:41.711Z,97467.47
2023-05-03T09:03:08.663Z,97464.28
2023-05-03T09:05:38.894Z,97448.06
2023-05-03T09:08:09.926Z,97459.34
2023-05-03T09:10:41.197Z,97458.44
2023-05-03T09:13:09.024Z,97449.78
2023-05-03T09:15:35.992Z,97428.66
2023-05-03T09:18:13.608Z,97448.75
2023-05-03T09:20:41.852Z,97444.63
2023-05-03T09:23:09.880Z,97441.06
2023-05-03T09:25:51.603Z,97432.94
2023-05-03T09:28:20.032Z,97440.97
2023-05-03T09:30:48.563Z,97444.81
2023-05-03T09:33:23.012Z,97453.28
2023-05-03T09:36:04.003Z,97443.75
2023-05-03T09:38:32.585Z,97446.41
2023-05-03T09:40:59.837Z,97451.66
2023-05-03T09:43:26.471Z,97448.38
2023-05-03T09:45:53.188Z,97433.78
2023-05-03T09:48:23.630Z,97431.34
2023-05-03T09:50:51.305Z,97434.44
2023-05-03T09:53:21.540Z,97409.22
2023-05-03T09:55:51.055Z,97429.00
2023-05-03T09:58:18.941Z,97436.59
2023-05-03T10:00:46.608Z,97435.50
2023-05-03T10:03:20.162Z,97432.94
2023-05-03T10:05:48.994Z,97432.84
2023-05-03T10:08:26.680Z,97442.50
2023-05-03T10:10:54.465Z,97393.25
2023-05-03T10:13:22.615Z,97436.72
2023-05-03T10:15:56.725Z,97436.84
2023-05-03T10:18:27.595Z,97425.97
2023-05-03T10:21:01.376Z,97424.59
2023-05-03T10:23:28.078Z,97423.03
2023-05-03T10:26:14.226Z,97410.84
2023-05-03T10:28:41.285Z,97413.47
2023-05-03T10:31:47.046Z,97420.66
2023-05-03T10:34:24.931Z,97420.13
2023-05-03T10:36:55.643Z,97429.34
2023-05-03T10:39:22.820Z,97413.16
2023-05-03T10:42:03.170Z,97419.31
2023-05-03T10:44:41.196Z,97409.91
2023-05-03T10:47:26.622Z,97392.84
2023-05-03T10:50:11.852Z,97393.97
2023-05-03T10:52:38.569Z,97402.88
2023-05-03T10:55:24.672Z,97398.47
2023-05-03T10:57:55.317Z,97389.09
2023-05-03T11:00:41.366Z,97383.13
2023-05-03T11:03:11.432Z,97392.78
2023-05-03T11:05:39.093Z,97383.56
2023-05-03T11:08:18.080Z,97374.75
2023-05-03T11:10:46.100Z,97372.69
2023-05-03T11:13:13.501Z,97369.34
2023-05-03T11:15:40.280Z,97355.88
2023-05-03T11:18:08.123Z,97352.03
2023-05-03T11:20:36.389Z,97355.41
2023-05-03T11:23:04.046Z,97352.53
2023-05-03T11:25:30.986Z,97332.56
2023-05-03T11:27:57.590Z,97326.09
2023-05-03T11:30:24.294Z,97324.03
2023-05-03T11:32:51.037Z,97317.81
2023-05-03T11:35:18.146Z,97321.19
2023-05-03T11:37:45.167Z,97309.78
2023-05-03T11:40:17.080Z,97320.38
2023-05-03T11:42:58.601Z,97323.50
2023-05-03T11:45:47.234Z,97312.34
2023-05-03T11:48:14.848Z,97314.19
2023-05-03T11:50:55.472Z,97312.13
2023-05-03T11:53:23.523Z,97310.56
2023-05-03T11:55:53.968Z,97318.78
2023-05-03T11:58:22.782Z,97312.75
2023-05-03T12:00:50.732Z,97313.31
2023-05-03T12:03:21.213Z,97316.09
2023-05-03T12:05:49.964Z,97322.00
2023-05-03T12:08:20.872Z,97307.47
2023-05-03T12:10:50.135Z,97322.47
2023-05-03T12:13:38.780Z,97330.50
2023-05-03T12:16:12.687Z,97336.41
2023-05-03T12:18:56.721Z,97347.66
2023-05-03T12:23:57.458Z,97382.03
2023-05-03T12:26:26.686Z,97394.31
2023-05-03T12:28:56.025Z,97409.53
2023-05-03T12:31:24.017Z,97413.00
2023-05-03T12:34:12.345Z,97420.69
2023-05-03T12:36:38.426Z,97418.69
2023-05-03T12:39:10.119Z,97391.84
2023-05-03T12:44:10.133Z,97402.53
2023-05-03T12:46:38.191Z,97402.50
2023-05-03T12:49:08.207Z,97399.72
2023-05-03T12:51:35.695Z,97396.25
2023-05-03T12:54:03.763Z,97381.06
2023-05-03T12:56:33.105Z,97368.59
2023-05-03T13:04:33.188Z,97355.34
2023-05-03T13:06:47.058Z,97342.09
2023-05-03T13:09:20.839Z,97334.22
2023-05-03T13:11:55.249Z,97331.66
2023-05-03T13:14:22.285Z,97330.38
2023-05-03T13:16:49.355Z,97325.41
2023-05-03T13:19:16.492Z,97332.41
2023-05-03T13:21:43.142Z,97326.16
2023-05-03T13:24:09.723Z,97339.53
2023-05-03T13:26:36.396Z,97334.31
2023-05-03T13:29:05.087Z,97331.09
2023-05-03T13:31:31.809Z,97337.38
2023-05-03T13:33:58.445Z,97328.75
2023-05-03T13:36:25.117Z,97320.63
2023-05-03T13:38:52.162Z,97324.81
2023-05-03T13:41:22.518Z,97340.09
2023-05-03T13:43:49.153Z,97346.88
2023-05-03T13:46:15.800Z,97343.06
2023-05-03T13:48:43.490Z,97351.84
2023-05-03T13:51:11.598Z,97353.13
2023-05-03T13:53:38.838Z,97346.03
2023-05-03T13:56:07.129Z,97364.63
2023-05-03T13:58:37.147Z,97371.28
2023-05-03T14:01:03.890Z,97371.44
2023-05-03T14:03:32.325Z,97357.97
2023-05-03T14:05:59.067Z,97365.84
2023-05-03T14:08:25.705Z,97356.34
2023-05-03T14:10:52.468Z,97340.09
2023-05-03T14:13:19.114Z,97322.38
2023-05-03T14:15:46.178Z,97323.31
2023-05-03T14:18:13.003Z,97319.72
2023-05-03T14:20:39.751Z,97327.41
2023-05-03T14:23:06.802Z,97333.56
2023-05-03T14:25:33.421Z,97342.34
2023-05-03T14:28:00.148Z,97342.06
2023-05-03T14:30:26.800Z,97350.50
2023-05-03T14:32:53.532Z,97348.72
2023-05-03T14:35:20.465Z,97333.44
2023-05-03T14:37:47.343Z,97312.13
2023-05-03T14:40:14.529Z,97331.63
2023-05-03T14:42:41.240Z,97335.56
2023-05-03T14:45:10.954Z,97310.25
2023-05-03T14:47:39.380Z,97335.00
2023-05-03T14:50:06.582Z,97334.59
2023-05-03T14:52:33.532Z,97331.25
2023-05-03T14:55:00.217Z,97337.28
2023-05-03T14:57:27.004Z,97330.59
2023-05-03T14:59:53.648Z,97339.97
2023-05-03T15:02:20.408Z,97335.13
2023-05-03T15:04:47.144Z,97343.66
2023-05-03T15:07:13.885Z,97335.44
2023-05-03T15:09:40.560Z,97334.56
2023-05-03T15:12:07.547Z,97338.97
2023-05-03T15:14:34.196Z,97343.09
2023-05-03T15:17:01.024Z,97339.69
2023-05-03T15:19:28.314Z,97333.72
2023-05-03T15:21:55.146Z,97330.03
2023-05-03T15:24:24.623Z,97334.81
2023-05-03T15:26:51.661Z,97332.03
2023-05-03T15:29:18.399Z,97338.09
2023-05-03T15:31:45.104Z,97335.63
2023-05-03T15:34:12.433Z,97331.44
2023-05-03T15:36:40.643Z,97335.84
2023-05-03T15:39:07.874Z,97349.22
2023-05-03T15:41:34.490Z,97348.38
2023-05-03T15:44:05.097Z,97345.34
2023-05-03T15:46:32.646Z,97341.34
2023-05-03T15:48:59.380Z,97339.00
2023-05-03T15:51:28.010Z,97339.59
2023-05-03T15:53:54.970Z,97342.72
2023-05-03T15:56:24.892Z,97341.19
2023-05-03T15:58:51.666Z,97326.97
2023-05-03T16:01:18.786Z,97339.84
2023-05-03T16:03:46.240Z,97341.41
2023-05-03T16:06:12.815Z,97336.13
2023-05-03T16:08:39.463Z,97344.91
2023-05-03T16:11:06.711Z,97338.97
2023-05-03T16:13:33.437Z,97340.53
2023-05-03T16:16:02.632Z,97340.25
2023-05-03T16:18:29.308Z,97343.66
2023-05-03T16:20:56.028Z,97341.41
2023-05-03T16:23:22.670Z,97349.69
2023-05-03T16:25:49.406Z,97345.69
2023-05-03T16:28:16.400Z,97352.63
2023-05-03T16:30:43.802Z,97348.81
2023-05-03T16:33:10.387Z,97351.06
2023-05-03T16:35:37.031Z,97345.69
2023-05-03T16:38:03.645Z,97350.47
2023-05-03T16:40:32.263Z,97359.06
2023-05-03T16:42:58.950Z,97350.19
2023-05-03T16:45:26.001Z,97357.00
2023-05-03T16:47:53.020Z,97350.13
2023-05-03T16:50:20.393Z,97363.22
2023-05-03T16:52:47.053Z,97351.72
2023-05-03T16:55:14.546Z,97360.50
2023-05-03T16:57:41.257Z,97370.84
2023-05-03T17:00:09.769Z,97368.50
2023-05-03T17:02:38.138Z,97356.59
2023-05-03T17:05:05.459Z,97360.75
2023-05-03T17:07:33.215Z,97357.00
2023-05-03T17:10:00.588Z,97355.25
2023-05-03T17:12:27.419Z,97365.16
2023-05-03T17:14:54.062Z,97368.63
2023-05-03T17:17:21.935Z,97367.75
2023-05-03T17:19:48.625Z,97376.22
2023-05-03T17:22:15.304Z,97378.75
2023-05-03T17:24:41.910Z,97388.34
2023-05-03T17:27:09.578Z,97379.06
2023-05-03T17:29:36.553Z,97377.47
2023-05-03T17:32:03.983Z,97370.00
2023-05-03T17:34:31.512Z,97373.41
2023-05-03T17:36:59.171Z,97367.53
2023-05-03T17:39:26.066Z,97368.22
2023-05-03T17:41:53.035Z,97373.44
2023-05-03T17:44:19.704Z,97368.81
2023-05-03T17:46:46.533Z,97368.97
2023-05-03T17:49:13.229Z,97362.25
2023-05-03T17:51:39.848Z,97380.69
2023-05-03T17:54:06.582Z,97373.50
2023-05-03T17:56:33.209Z,97381.84
2023-05-03T17:58:59.869Z,97383.16
2023-05-03T18:01:27.730Z,97385.16
2023-05-03T18:03:54.544Z,97390.47
2023-05-03T18:06:21.469Z,97393.75
2023-05-03T18:08:48.459Z,97400.66
2023-05-03T18:11:15.077Z,97397.66
2023-05-03T18:13:43.111Z,97402.69
2023-05-03T18:16:10.027Z,97397.03
2023-05-03T18:18:39.546Z,97400.34
2023-05-03T18:21:06.397Z,97392.88
2023-05-03T18:23:33.450Z,97390.19
2023-05-03T18:26:00.376Z,97400.88
2023-05-03T18:28:27.612Z,97408.25
2023-05-03T18:30:56.056Z,97397.47
2023-05-03T18:33:23.166Z,97385.59
2023-05-03T18:35:52.996Z,97404.97
2023-05-03T18:38:21.513Z,97411.41
2023-05-03T18:40:50.088Z,97420.34
2023-05-03T18:43:16.902Z,97409.06
2023-05-03T18:45:44.455Z,97422.88
2023-05-03T18:48:12.015Z,97429.94
2023-05-03T18:50:39.435Z,97424.75
2023-05-03T18:53:06.484Z,97442.97
2023-05-03T18:55:33.220Z,97439.22
2023-05-03T18:58:00.660Z,97441.84
2023-05-03T19:00:27.826Z,97442.16
2023-05-03T19:02:54.508Z,97438.53
2023-05-03T19:05:21.355Z,97443.09
2023-05-03T19:07:48.872Z,97447.50
2023-05-03T19:10:16.258Z,97439.34
2023-05-03T19:12:44.431Z,97449.53
2023-05-03T19:15:11.746Z,97450.31
2023-05-03T19:17:40.503Z,97445.78
2023-05-03T19:20:07.947Z,97455.50
2023-05-03T19:22:34.431Z,97453.16
2023-05-03T19:25:03.463Z,97446.91
2023-05-03T19:27:31.716Z,97445.00
2023-05-03T19:29:58.404Z,97444.84
2023-05-03T19:32:25.258Z,97439.22
2023-05-03T19:34:51.962Z,97436.84
2023-05-03T19:37:18.623Z,97439.53
2023-05-03T19:39:45.669Z,97438.94
2023-05-03T19:42:12.264Z,97432.69
2023-05-03T19:44:39.180Z,97433.75
2023-05-03T19:47:05.835Z,97430.16
2023-05-03T19:49:32.701Z,97424.66
2023-05-03T19:51:59.312Z,97415.44
2023-05-03T19:54:26.299Z,97423.09
2023-05-03T19:56:53.682Z,97423.09
2023-05-03T19:59:20.145Z,97424.19
2023-05-03T20:01:46.872Z,97425.94
2023-05-03T20:04:13.832Z,97426.44
2023-05-03T20:06:40.764Z,97430.84
2023-05-03T20:09:07.667Z,97431.47
2023-05-03T20:11:34.281Z,97426.78
2023-05-03T20:14:01.222Z,97426.94
2023-05-03T20:16:32.871Z,97431.47
2023-05-03T20:18:59.971Z,97427.09
2023-05-03T20:21:26.565Z,97420.38
2023-05-03T20:23:53.151Z,97415.19
2023-05-03T20:26:19.854Z,97413.00
2023-05-03T20:28:46.497Z,97415.53
2023-05-03T20:31:13.156Z,97410.66
2023-05-03T20:33:39.829Z,97397.97
2023-05-03T20:36:07.283Z,97404.41
2023-05-03T20:38:33.897Z,97407.22
2023-05-03T20:41:00.616Z,97408.03
2023-05-03T20:43:27.302Z,97402.09
2023-05-03T20:45:54.304Z,97410.41
2023-05-03T20:48:21.335Z,97416.66
2023-05-03T20:50:50.017Z,97411.34
2023-05-03T20:53:16.884Z,97414.94
2023-05-03T20:55:43.488Z,97414.00
2023-05-03T20:58:12.193Z,97408.34
2023-05-03T21:00:38.852Z,97402.41
2023-05-03T21:03:05.555Z,97398.19
2023-05-03T21:05:32.375Z,97403.84
2023-05-03T21:07:58.922Z,97406.81
2023-05-03T21:10:26.001Z,97401.94
2023-05-03T21:12:52.684Z,97411.66
2023-05-03T21:15:19.357Z,97411.19
2023-05-03T21:17:46.137Z,97403.34
2023-05-03T21:20:13.325Z,97408.69
2023-05-03T21:22:39.998Z,97400.22
2023-05-03T21:25:07.284Z,97401.81
2023-05-03T21:27:33.907Z,97400.22
2023-05-03T21:30:01.742Z,97399.16
2023-05-03T21:32:28.582Z,97405.84
2023-05-03T21:34:55.287Z,97401.81
2023-05-03T21:37:21.982Z,97398.66
2023-05-03T21:40:00.396Z,97384.41
2023-05-03T21:42:27.907Z,97395.22
2023-05-03T21:44:54.452Z,97397.56
2023-05-03T21:47:21.320Z,97396.78
2023-05-03T21:49:47.957Z,97393.66
2023-05-03T21:52:14.613Z,97392.25
2023-05-03T21:54:41.227Z,97386.13
2023-05-03T21:57:07.921Z,97379.25
2023-05-03T21:59:34.662Z,97376.59
2023-05-03T22:02:01.435Z,97378.94
2023-05-03T22:04:28.169Z,97380.19
2023-05-03T22:06:54.957Z,97380.81
2023-05-03T22:09:21.603Z,97384.09
2023-05-03T22:11:48.238Z,97377.69
2023-05-03T22:14:15.238Z,97375.81
2023-05-03T22:16:42.206Z,97371.09
2023-05-03T22:19:09.281Z,97371.75
2023-05-03T22:21:35.887Z,97352.81
2023-05-03T22:24:02.894Z,97360.47
2023-05-03T22:26:29.913Z,97355.31
2023-05-03T22:28:56.552Z,97350.94
2023-05-03T22:31:23.225Z,97348.91
2023-05-03T22:33:49.912Z,97339.19
2023-05-03T22:36:16.493Z,97333.53
2023-05-03T22:38:43.442Z,97337.31
2023-05-03T22:41:10.495Z,97317.09
2023-05-03T22:43:37.159Z,97335.72
2023-05-03T22:46:04.133Z,97337.56
2023-05-03T22:48:32.507Z,97330.88
2023-05-03T22:50:59.440Z,97319.59
2023-05-03T22:53:26.206Z,97331.94
2023-05-03T22:56:01.433Z,97324.78
2023-05-03T22:58:28.465Z,97319.75
2023-05-03T23:00:55.138Z,97307.13
2023-05-03T23:03:22.470Z,97319.75
2023-05-03T23:05:49.413Z,97310.38
2023-05-03T23:08:15.997Z,97308.84
2023-05-03T23:10:42.800Z,97304.75
2023-05-03T23:13:09.726Z,97313.38
2023-05-03T23:15:36.720Z,97302.56
2023-05-03T23:18:04.066Z,97307.88
2023-05-03T23:20:30.720Z,97307.56
2023-05-03T23:22:57.349Z,97298.97
2023-05-03T23:25:23.942Z,97304.28
2023-05-03T23:27:50.608Z,97302.56
2023-05-03T23:30:17.753Z,97292.69
2023-05-03T23:32:46.521Z,97292.22
2023-05-03T23:35:15.149Z,97276.88
2023-05-03T23:37:41.778Z,97300.19
2023-05-03T23:40:08.815Z,97290.00
2023-05-03T23:42:35.647Z,97295.34
2023-05-03T23:45:02.287Z,97290.34
2023-05-03T23:47:28.912Z,97294.56
2023-05-03T23:49:55.847Z,97293.78
2023-05-03T23:52:22.430Z,97296.59
2023-05-03T23:54:49.167Z,97294.72
2023-05-03T23:57:15.829Z,97290.66
2023-05-03T23:59:42.407Z,97299.41
